Time;durP1;ratioP1;P1;durP2;ratioP2;P2;SDS_P1;SDS_P2;PMS_P1;PMS_P2;Temp;Humidity;BMP_temperature;BMP_pressure;BME280_temperature;BME280_humidity;BME280_pressure;Samples;Min_cycle;Max_cycle;Signal;HPM_P1;HPM_P2
2021/12/07 00:02:22;;;;;;;3.83;3.67;;;;;;;1.84;100.00;99994.13;4384401;32;20073;-71
2021/12/07 00:04:47;;;;;;;2.62;2.53;;;;;;;1.64;100.00;99962.81;4398671;32;20099;-72
2021/12/07 00:07:12;;;;;;;2.58;2.47;;;;;;;1.72;100.00;99973.78;4395191;32;20080;-72
2021/12/07 00:09:38;;;;;;;3.05;2.95;;;;;;;1.91;100.00;99997.41;4400892;32;20065;-72
2021/12/07 00:12:04;;;;;;;2.70;2.60;;;;;;;1.03;100.00;99869.66;4409984;32;20171;-71
2021/12/07 00:14:35;;;;;;;4.07;3.87;;;;;;;1.76;100.00;99980.56;4387410;32;20076;-72
2021/12/07 00:17:02;;;;;;;3.55;3.35;;;;;;;1.92;100.00;100012.03;4412768;32;20583;-71
2021/12/07 00:19:27;;;;;;;4.03;3.85;;;;;;;0.71;100.00;99819.69;4382071;32;20081;-71
2021/12/07 00:21:53;;;;;;;3.00;2.90;;;;;;;1.91;100.00;100020.72;4391586;32;20638;-72
2021/12/07 00:24:18;;;;;;;2.60;2.50;;;;;;;1.61;100.00;99992.19;4377842;32;20064;-71
2021/12/07 00:26:43;;;;;;;2.60;2.50;;;;;;;1.88;100.00;100031.97;4362364;32;20065;-72
2021/12/07 00:29:09;;;;;;;2.70;2.60;;;;;;;1.90;100.00;100029.34;4394953;32;20581;-71
2021/12/07 00:31:40;;;;;;;3.97;3.80;;;;;;;1.76;100.00;100016.78;4364984;32;20206;-72
2021/12/07 00:34:24;;;;;;;2.80;2.70;;;;;;;1.71;100.00;100014.34;4401959;32;20088;-71
2021/12/07 00:36:50;;;;;;;2.90;2.80;;;;;;;1.81;100.00;100034.78;4401779;32;20079;-71
2021/12/07 00:39:17;;;;;;;2.80;2.70;;;;;;;0.38;100.00;99797.28;4396011;32;20085;-72
2021/12/07 00:41:42;;;;;;;2.70;2.60;;;;;;;1.04;100.00;99918.69;4404005;32;20571;-73
2021/12/07 00:44:08;;;;;;;2.80;2.70;;;;;;;1.10;100.00;99912.53;4398134;32;20087;-73
2021/12/07 00:46:34;;;;;;;3.80;3.67;;;;;;;1.78;100.00;100030.53;4401129;32;20060;-73
2021/12/07 00:48:59;;;;;;;2.53;2.42;;;;;;;1.01;100.00;99923.13;4435017;32;20061;-72
2021/12/07 00:51:25;;;;;;;3.47;3.37;;;;;;;1.22;100.00;99973.38;4387455;32;20077;-73
2021/12/07 00:53:50;;;;;;;2.75;2.65;;;;;;;1.50;100.00;100039.00;4397166;32;20064;-72
2021/12/07 00:56:15;;;;;;;2.62;2.53;;;;;;;0.86;100.00;99935.50;4393418;32;20068;-73
2021/12/07 00:58:41;;;;;;;2.55;2.45;;;;;;;1.51;100.00;100043.28;4396129;32;20476;-72
2021/12/07 01:01:12;;;;;;;2.47;2.37;;;;;;;1.57;100.00;100050.91;4401838;32;20073;-72
2021/12/07 01:03:38;;;;;;;3.92;3.78;;;;;;;1.62;100.00;100044.75;4418695;32;20218;-73
2021/12/07 01:06:16;;;;;;;2.60;2.50;;;;;;;1.57;100.00;100050.91;4398472;32;20401;-74
2021/12/07 01:25:09;;;;;;;2.70;2.60;;;;;;;1.67;100.00;100059.28;4413455;32;20117;-72
2021/12/07 01:27:34;;;;;;;4.72;4.35;;;;;;;1.87;100.00;100112.25;4406684;32;20076;-73
2021/12/07 01:33:11;;;;;;;2.58;2.47;;;;;;;1.98;100.00;100069.66;4394738;32;20076;-73
2021/12/07 01:35:57;;;;;;;4.18;3.97;;;;;;;1.46;100.00;99997.75;4399963;32;20075;-71
2021/12/07 01:41:07;;;;;;;3.08;2.92;;;;;;;2.38;100.00;100098.78;4427302;32;20534;-73
2021/12/07 01:46:33;;;;;;;2.45;2.35;;;;;;;2.54;100.00;100109.53;4426340;32;20091;-73
2021/12/07 01:58:06;;;;;;;2.75;2.65;;;;;;;2.42;100.00;100068.47;4427154;32;20072;-73
2021/12/07 01:59:49;;;;;;;2.30;2.20;;;;;;;2.68;100.00;100106.56;4398019;32;20077;-73
2021/12/07 02:02:16;;;;;;;2.67;2.58;;;;;;;2.73;100.00;100128.84;4397047;32;20219;-73
2021/12/07 02:04:41;;;;;;;2.62;2.53;;;;;;;2.79;100.00;100139.03;4385418;32;20069;-72
2021/12/07 02:07:07;;;;;;;3.05;2.95;;;;;;;2.05;100.00;100023.75;4383566;32;20443;-73
2021/12/07 02:09:34;;;;;;;4.25;4.05;;;;;;;1.55;100.00;99930.28;4386733;32;20089;-72
2021/12/07 02:12:02;;;;;;;2.60;2.50;;;;;;;2.31;100.00;100092.91;4389306;32;20381;-72
2021/12/07 02:14:27;;;;;;;2.90;2.80;;;;;;;1.93;100.00;100013.75;4411953;32;20072;-72
2021/12/07 02:16:54;;;;;;;4.65;4.35;;;;;;;2.95;100.00;100162.75;4402596;32;20128;-71
2021/12/07 02:19:20;;;;;;;2.72;2.62;;;;;;;3.01;100.00;100166.94;4399972;32;20188;-72
2021/12/07 02:21:45;;;;;;;3.10;3.00;;;;;;;3.05;100.00;100183.22;4415407;32;20086;-72
2021/12/07 02:24:10;;;;;;;2.70;2.60;;;;;;;3.03;100.00;100203.16;4395742;32;20072;-71
2021/12/07 02:26:36;;;;;;;4.45;4.25;;;;;;;2.96;100.00;100215.44;4395903;32;20300;-72
2021/12/07 02:29:03;;;;;;;2.58;2.47;;;;;;;2.85;100.00;100217.50;4399730;32;20487;-72
2021/12/07 02:31:28;;;;;;;4.40;4.20;;;;;;;2.52;100.00;100178.66;4388877;32;20127;-72
2021/12/07 02:33:54;;;;;;;2.90;2.80;;;;;;;2.83;100.00;100220.13;4399790;32;20079;-72
2021/12/07 02:36:19;;;;;;;2.90;2.80;;;;;;;2.81;100.00;100221.91;4397991;32;20092;-73
2021/12/07 02:38:45;;;;;;;2.87;2.78;;;;;;;2.61;100.00;100191.38;4407822;32;20076;-72
2021/12/07 02:41:10;;;;;;;2.67;2.58;;;;;;;2.71;100.00;100199.75;4398111;32;20401;-72
2021/12/07 02:43:35;;;;;;;4.85;4.65;;;;;;;2.84;100.00;100242.56;4408978;32;20075;-73
2021/12/07 02:46:01;;;;;;;2.70;2.60;;;;;;;2.76;100.00;100222.03;4415424;32;21680;-73
2021/12/07 02:48:26;;;;;;;4.03;3.83;;;;;;;1.24;100.00;99956.94;4392548;32;20642;-73
2021/12/07 02:50:52;;;;;;;2.72;2.62;;;;;;;2.69;100.00;100194.59;4392469;32;20465;-73
2021/12/07 02:53:21;;;;;;;2.80;2.70;;;;;;;2.95;100.00;100248.28;4387809;32;20104;-73
2021/12/07 02:55:47;;;;;;;2.80;2.70;;;;;;;2.95;100.00;100244.88;4387856;32;20130;-73
2021/12/07 02:58:12;;;;;;;2.92;2.83;;;;;;;2.52;100.00;100173.50;4396791;32;20080;-73
2021/12/07 03:00:45;;;;;;;3.33;3.22;;;;;;;1.53;100.00;100020.00;4380814;32;20092;-73
2021/12/07 03:03:13;;;;;;;3.47;3.22;;;;;;;2.47;100.00;100171.03;4396591;32;20080;-73
2021/12/07 03:06:45;;;;;;;4.05;3.85;;;;;;;3.01;100.00;100249.88;4394257;32;20196;-73
2021/12/07 03:27:28;;;;;;;4.18;3.97;;;;;;;2.05;100.00;100079.84;4413546;32;20091;-71
2021/12/07 03:29:53;;;;;;;2.70;2.60;;;;;;;3.33;100.00;100300.81;4379903;32;20073;-72
2021/12/07 03:32:19;;;;;;;3.00;2.90;;;;;;;3.16;100.00;100269.31;4391857;32;20080;-71
2021/12/07 03:34:44;;;;;;;2.70;2.60;;;;;;;3.20;100.00;100295.09;4379374;32;20065;-71
2021/12/07 03:37:10;;;;;;;2.80;2.70;;;;;;;3.34;100.00;100330.19;4378037;32;20107;-73
2021/12/07 03:39:35;;;;;;;4.45;4.25;;;;;;;3.30;100.00;100325.97;4392334;32;20077;-72
2021/12/07 03:42:00;;;;;;;3.95;3.55;;;;;;;3.28;100.00;100331.19;4392850;32;20065;-72
2021/12/07 03:44:26;;;;;;;4.40;4.20;;;;;;;2.33;100.00;100184.34;4377477;32;20116;-73
2021/12/07 03:46:51;;;;;;;2.70;2.60;;;;;;;3.14;100.00;100323.81;4399448;32;20096;-73
2021/12/07 03:49:16;;;;;;;2.80;2.70;;;;;;;3.08;100.00;100307.56;4374633;32;20065;-72
2021/12/07 03:51:42;;;;;;;2.80;2.70;;;;;;;3.32;100.00;100348.38;4392208;32;20114;-72
2021/12/07 03:54:07;;;;;;;2.70;2.60;;;;;;;3.25;100.00;100346.88;4377812;32;20078;-72
2021/12/07 03:56:33;;;;;;;4.45;4.25;;;;;;;3.22;100.00;100340.91;4379590;32;20736;-73
2021/12/07 03:58:58;;;;;;;2.70;2.60;;;;;;;2.03;100.00;100139.41;4396712;32;20549;-72
2021/12/07 04:01:24;;;;;;;3.80;3.67;;;;;;;3.29;100.00;100363.19;4385893;32;20092;-72
2021/12/07 04:03:49;;;;;;;2.80;2.70;;;;;;;2.91;100.00;100305.44;4377792;32;20168;-72
2021/12/07 04:06:15;;;;;;;2.70;2.60;;;;;;;3.16;100.00;100358.31;4379866;32;20091;-72
2021/12/07 04:08:42;;;;;;;2.85;2.75;;;;;;;2.93;100.00;100334.78;4395789;32;20090;-72
2021/12/07 04:11:07;;;;;;;2.70;2.60;;;;;;;2.72;100.00;100310.25;4394861;32;20184;-72
2021/12/07 04:13:33;;;;;;;5.12;4.93;;;;;;;3.13;100.00;100371.38;4372500;32;20077;-72
2021/12/07 04:15:59;;;;;;;2.78;2.67;;;;;;;3.06;100.00;100356.88;4370463;32;20073;-72
2021/12/07 04:18:25;;;;;;;4.03;3.85;;;;;;;3.00;100.00;100350.09;4366226;32;20545;-72
2021/12/07 04:20:51;;;;;;;2.85;2.75;;;;;;;3.02;100.00;100359.59;4364786;32;20092;-72
2021/12/07 04:23:16;;;;;;;2.75;2.65;;;;;;;3.14;100.00;100383.44;4379968;32;20068;-72
2021/12/07 04:25:41;;;;;;;31.23;3.70;;;;;;;2.97;100.00;100362.31;4383302;32;20151;-71
2021/12/07 04:28:07;;;;;;;2.70;2.60;;;;;;;2.85;100.00;100354.84;4399050;32;20762;-72
2021/12/07 04:30:35;;;;;;;4.37;4.18;;;;;;;2.96;100.00;100392.53;4378690;32;20088;-72
2021/12/07 04:33:00;;;;;;;2.70;2.60;;;;;;;2.79;100.00;100372.25;4396384;32;20072;-73
2021/12/07 04:35:26;;;;;;;4.12;3.92;;;;;;;2.84;100.00;100400.63;4402760;32;20080;-73
2021/12/07 04:37:52;;;;;;;2.70;2.60;;;;;;;2.50;100.00;100362.59;4421622;32;20037;-72
2021/12/07 04:40:22;;;;;;;2.80;2.70;;;;;;;2.68;100.00;100387.22;4426423;32;20053;-72
2021/12/07 04:42:48;;;;;;;2.95;2.85;;;;;;;2.90;100.00;100408.25;4422011;32;20088;-71
2021/12/07 04:46:09;;;;;;;2.70;2.60;;;;;;;2.89;100.00;100409.16;4409097;32;20191;-72
2021/12/07 04:48:27;;;;;;;2.80;2.70;;;;;;;2.71;100.00;100394.91;4407353;32;20062;-72
2021/12/07 04:59:01;;;;;;;2.70;2.60;;;;;;;2.42;100.00;100395.59;4425016;32;20351;-72
2021/12/07 05:01:26;;;;;;;4.18;3.97;;;;;;;2.53;100.00;100423.87;4401007;32;20616;-71
2021/12/07 05:03:55;;;;;;;2.90;2.80;;;;;;;2.45;100.00;100397.28;4405835;32;20095;-73
2021/12/07 05:06:27;;;;;;;2.95;2.85;;;;;;;2.49;100.00;100402.34;4412594;32;20096;-71
2021/12/07 05:09:01;;;;;;;2.87;2.78;;;;;;;2.58;100.00;100432.38;4412388;32;20076;-70
2021/12/07 05:11:43;;;;;;;4.30;4.10;;;;;;;2.35;100.00;100415.63;4409680;32;20154;-71
2021/12/07 05:14:20;;;;;;;4.00;2.92;;;;;;;2.48;100.00;100452.44;4417328;32;20057;-72
2021/12/07 05:25:29;;;;;;;2.55;2.45;;;;;;;0.97;100.00;100196.19;4408064;32;20218;-72
2021/12/07 05:38:46;;;;;;;2.80;2.70;;;;;;;2.74;100.00;100464.78;4420040;32;20083;-71
2021/12/07 05:41:11;;;;;;;2.70;2.60;;;;;;;2.49;100.00;100417.06;4411602;32;20057;-72
2021/12/07 05:43:37;;;;;;;4.35;4.15;;;;;;;2.76;100.00;100481.16;4421807;32;20134;-72
2021/12/07 05:46:02;;;;;;;2.70;2.60;;;;;;;2.71;100.00;100472.66;4398749;32;20096;-71
2021/12/07 05:48:28;;;;;;;4.12;3.92;;;;;;;2.85;100.00;100500.00;4405916;32;20064;-73
2021/12/07 05:50:53;;;;;;;2.60;2.50;;;;;;;2.83;100.00;100491.37;4415592;32;20060;-72
2021/12/07 05:53:19;;;;;;;2.80;2.70;;;;;;;2.90;100.00;100490.34;4397898;32;20071;-71
2021/12/07 05:55:44;;;;;;;2.72;2.62;;;;;;;2.34;100.00;100413.06;4393773;32;20069;-72
2021/12/07 05:58:09;;;;;;;2.60;2.50;;;;;;;2.82;100.00;100519.03;4400842;32;20079;-72
2021/12/07 06:00:36;;;;;;;4.95;4.70;;;;;;;2.65;100.00;100496.12;4391264;32;20594;-71
2021/12/07 06:03:06;;;;;;;2.90;2.80;;;;;;;2.56;100.00;100486.78;4404590;32;20087;-71
2021/12/07 06:05:31;;;;;;;3.87;3.72;;;;;;;1.66;100.00;100369.69;4408201;32;20071;-72
2021/12/07 06:07:57;;;;;;;2.85;2.75;;;;;;;2.61;100.00;100530.75;4408833;32;20064;-72
2021/12/07 06:10:22;;;;;;;3.35;3.25;;;;;;;2.43;100.00;100505.25;4405278;32;20069;-72
2021/12/07 06:12:47;;;;;;;2.80;2.70;;;;;;;2.54;100.00;100542.13;4409182;32;20124;-70
2021/12/07 06:15:17;;;;;;;2.70;2.60;;;;;;;2.19;100.00;100473.81;4407389;32;20077;-71
2021/12/07 06:17:42;;;;;;;2.70;2.60;;;;;;;2.51;100.00;100557.75;4399246;32;20068;-73
2021/12/07 06:20:08;;;;;;;2.70;2.60;;;;;;;2.57;100.00;100562.78;4398229;32;20552;-72
2021/12/07 06:22:33;;;;;;;4.25;4.05;;;;;;;2.50;100.00;100549.09;4409433;32;20087;-71
2021/12/07 06:24:58;;;;;;;2.72;2.62;;;;;;;1.70;100.00;100430.81;4413299;32;20069;-71
2021/12/07 06:27:24;;;;;;;3.00;2.90;;;;;;;2.46;100.00;100582.87;4397570;32;20075;-70
2021/12/07 06:29:49;;;;;;;3.10;3.00;;;;;;;2.31;100.00;100566.78;4391753;32;20069;-71
2021/12/07 06:32:15;;;;;;;3.20;3.10;;;;;;;1.78;100.00;100478.09;4390487;32;20077;-71
2021/12/07 06:34:40;;;;;;;3.00;2.90;;;;;;;2.27;100.00;100552.19;4389331;32;20211;-72
2021/12/07 06:37:06;;;;;;;2.75;2.65;;;;;;;2.28;100.00;100553.88;4383805;32;22309;-72
2021/12/07 06:39:31;;;;;;;4.18;3.97;;;;;;;2.36;100.00;100569.25;4392125;32;20077;-71
2021/12/07 06:41:57;;;;;;;3.03;2.92;;;;;;;2.33;100.00;100579.69;4380036;32;20501;-72
2021/12/07 06:44:22;;;;;;;3.40;3.30;;;;;;;2.33;100.00;100567.59;4397184;32;20093;-72
2021/12/07 06:46:48;;;;;;;2.80;2.70;;;;;;;2.25;100.00;100560.88;4382494;32;20713;-69
2021/12/07 06:49:17;;;;;;;2.70;2.60;;;;;;;2.18;100.00;100584.25;4384341;32;20100;-73
2021/12/07 06:51:42;;;;;;;2.65;2.55;;;;;;;1.99;100.00;100536.34;4380174;32;20080;-72
2021/12/07 06:54:07;;;;;;;2.80;2.70;;;;;;;1.95;100.00;100545.06;4380373;32;20073;-71
2021/12/07 06:56:33;;;;;;;4.07;3.90;;;;;;;1.52;100.00;100491.50;4387317;32;20091;-72
2021/12/07 06:58:58;;;;;;;2.70;2.60;;;;;;;1.97;100.00;100576.94;4377890;32;20074;-72
2021/12/07 07:01:23;;;;;;;4.12;3.92;;;;;;;1.99;100.00;100563.06;4390454;32;20073;-72
2021/12/07 07:03:49;;;;;;;2.90;2.80;;;;;;;2.01;100.00;100575.16;4387533;32;20092;-72
2021/12/07 07:06:14;;;;;;;2.70;2.60;;;;;;;1.99;100.00;100572.56;4378100;32;20609;-72
2021/12/07 07:08:40;;;;;;;3.15;3.05;;;;;;;0.95;100.00;100414.97;4378964;32;20069;-72
2021/12/07 07:11:05;;;;;;;2.80;2.70;;;;;;;1.86;100.00;100584.03;4378247;32;20651;-71
2021/12/07 07:13:31;;;;;;;4.43;4.22;;;;;;;1.61;100.00;100553.44;4388682;32;20858;-71
2021/12/07 07:15:57;;;;;;;2.70;2.60;;;;;;;1.28;100.00;100519.50;4382766;32;20091;-72
2021/12/07 07:18:23;;;;;;;2.70;2.60;;;;;;;1.56;100.00;100579.37;4393749;32;20085;-71
2021/12/07 07:20:48;;;;;;;2.70;2.60;;;;;;;1.64;100.00;100581.81;4391192;32;20104;-71
2021/12/07 07:23:13;;;;;;;3.05;2.90;;;;;;;1.58;100.00;100597.44;4379626;32;20069;-72
2021/12/07 07:25:39;;;;;;;3.47;3.37;;;;;;;1.51;100.00;100630.31;4395845;32;20182;-71
2021/12/07 07:28:04;;;;;;;2.58;2.47;;;;;;;1.48;100.00;100603.66;4384651;32;20083;-72
2021/12/07 07:30:30;;;;;;;4.65;4.45;;;;;;;1.53;100.00;100607.88;4377929;32;20143;-72
2021/12/07 07:32:55;;;;;;;2.78;2.67;;;;;;;1.11;100.00;100544.78;4403675;32;20949;-73
2021/12/07 07:35:20;;;;;;;2.90;2.80;;;;;;;0.98;100.00;100526.00;4398932;32;20091;-75
2021/12/07 07:37:46;;;;;;;2.67;2.58;;;;;;;1.58;100.00;100654.34;4393442;32;20069;-74
2021/12/07 07:40:16;;;;;;;2.50;2.40;;;;;;;0.73;100.00;100500.56;4396747;32;21008;-74
2021/12/07 07:42:42;;;;;;;3.40;3.30;;;;;;;1.51;100.00;100617.38;4393732;32;21125;-73
2021/12/07 07:45:07;;;;;;;2.50;2.40;;;;;;;1.44;100.00;100610.59;4419611;32;20076;-73
2021/12/07 07:47:33;;;;;;;4.37;4.18;;;;;;;0.29;100.00;100418.59;4395880;32;20083;-73
2021/12/07 07:49:58;;;;;;;2.75;2.65;;;;;;;1.25;100.00;100596.28;4404983;32;20169;-73
2021/12/07 07:52:23;;;;;;;4.03;3.85;;;;;;;1.19;100.00;100599.78;4394347;32;20081;-73
2021/12/07 07:54:49;;;;;;;2.80;2.70;;;;;;;0.96;100.00;100563.94;4400083;32;20145;-74
2021/12/07 07:57:14;;;;;;;2.83;2.72;;;;;;;-0.04;100.00;100408.72;4389348;32;20953;-75
2021/12/07 07:59:40;;;;;;;3.00;2.90;;;;;;;1.18;100.00;100592.91;4399722;32;20092;-75
2021/12/07 08:02:06;;;;;;;2.80;2.70;;;;;;;1.32;100.00;100618.53;4404711;32;20150;-74
2021/12/07 08:04:31;;;;;;;4.45;4.25;;;;;;;1.37;100.00;100612.44;4416488;32;20472;-74
2021/12/07 08:06:56;;;;;;;3.05;2.95;;;;;;;-0.18;100.00;100337.56;4395007;32;20066;-74
2021/12/07 08:09:22;;;;;;;3.47;3.35;;;;;;;1.42;100.00;100608.91;4404443;32;20074;-74
2021/12/07 08:11:47;;;;;;;2.80;2.70;;;;;;;1.04;100.00;100559.50;4392222;32;20080;-75
2021/12/07 08:14:13;;;;;;;2.85;2.75;;;;;;;1.19;100.00;100576.53;4395681;32;20672;-75
2021/12/07 08:16:38;;;;;;;3.42;3.33;;;;;;;0.62;100.00;100476.63;4393503;32;20087;-74
2021/12/07 08:19:04;;;;;;;2.70;2.60;;;;;;;0.58;100.00;100477.53;4408765;32;20150;-74
2021/12/07 08:21:29;;;;;;;4.28;4.07;;;;;;;0.96;100.00;100531.22;4390295;32;20144;-74
2021/12/07 08:23:54;;;;;;;3.00;2.90;;;;;;;1.53;100.00;100625.97;4396567;32;20080;-75
2021/12/07 08:26:21;;;;;;;2.78;2.67;;;;;;;0.78;100.00;100497.91;4394362;32;20080;-75
2021/12/07 08:28:46;;;;;;;2.85;2.75;;;;;;;0.71;100.00;100473.06;4404102;32;20484;-73
2021/12/07 08:31:12;;;;;;;2.90;2.80;;;;;;;0.87;100.00;100502.09;4391031;32;20235;-73
2021/12/07 08:33:37;;;;;;;4.07;3.87;;;;;;;1.59;100.00;100609.50;4402039;32;20069;-75
2021/12/07 08:36:03;;;;;;;2.60;2.50;;;;;;;0.29;100.00;100416.87;4394468;32;20688;-74
2021/12/07 08:38:28;;;;;;;4.35;4.15;;;;;;;0.15;100.00;100372.34;4389254;32;20092;-74
2021/12/07 08:40:54;;;;;;;2.85;2.75;;;;;;;1.66;100.00;100623.19;4406862;32;20125;-73
2021/12/07 08:43:24;;;;;;;2.70;2.60;;;;;;;1.70;100.00;100640.34;4390873;32;21006;-73
2021/12/07 08:45:50;;;;;;;2.80;2.70;;;;;;;1.63;100.00;100618.06;4389814;32;20077;-73
2021/12/07 08:48:16;;;;;;;4.70;4.50;;;;;;;1.30;100.00;100540.16;4392356;32;20087;-73
2021/12/07 08:50:42;;;;;;;3.00;2.90;;;;;;;1.95;100.00;100639.06;4391949;32;20108;-73
2021/12/07 08:53:11;;;;;;;2.90;2.80;;;;;;;2.02;100.00;100641.53;4418418;32;20163;-74
2021/12/07 09:01:05;;;;;;;2.80;2.70;;;;;;;2.17;100.00;100621.41;4412491;32;20125;-73
2021/12/07 09:03:30;;;;;;;4.97;4.78;;;;;;;2.29;100.00;100625.50;4389523;32;20112;-75
2021/12/07 09:05:55;;;;;;;2.80;2.70;;;;;;;1.81;100.00;100536.69;4407311;32;20104;-74
2021/12/07 09:08:21;;;;;;;3.15;3.05;;;;;;;2.13;100.00;100580.09;4402844;32;20130;-75
2021/12/07 09:10:46;;;;;;;3.20;3.00;;;;;;;2.52;100.00;100639.72;4417689;32;20101;-72
2021/12/07 09:13:12;;;;;;;3.00;2.90;;;;;;;2.57;100.00;100630.16;4390107;32;20068;-73
2021/12/07 09:15:37;;;;;;;4.55;4.35;;;;;;;2.60;100.00;100643.03;4388490;32;20098;-73
2021/12/07 09:18:03;;;;;;;2.72;2.62;;;;;;;2.68;100.00;100650.63;4392898;32;20168;-73
2021/12/07 09:20:29;;;;;;;4.45;4.25;;;;;;;2.64;100.00;100642.06;4399827;32;20122;-74
2021/12/07 09:22:54;;;;;;;3.28;3.08;;;;;;;2.55;100.00;100634.50;4392156;32;20076;-74
2021/12/07 09:25:20;;;;;;;3.33;3.22;;;;;;;2.54;100.00;100640.56;4390206;32;20076;-76
2021/12/07 09:27:45;;;;;;;3.20;3.10;;;;;;;0.94;100.00;100383.13;4389174;32;20088;-74
2021/12/07 09:30:12;;;;;;;2.97;2.87;;;;;;;2.59;100.00;100652.53;4396070;32;20464;-74
2021/12/07 09:32:37;;;;;;;4.57;4.37;;;;;;;2.72;100.00;100660.06;4387468;32;20072;-74
2021/12/07 09:35:04;;;;;;;2.90;2.80;;;;;;;2.88;100.00;100650.22;4416638;32;20080;-73
2021/12/07 09:37:29;;;;;;;4.53;4.32;;;;;;;3.00;100.00;100650.81;4389770;32;20127;-74
2021/12/07 09:39:54;;;;;;;2.97;2.87;;;;;;;3.14;100.00;100644.47;4402394;32;20066;-73
2021/12/07 09:42:20;;;;;;;2.92;2.83;;;;;;;3.26;100.00;100645.94;4391354;32;20073;-75
2021/12/07 09:44:46;;;;;;;4.10;3.90;;;;;;;3.29;100.00;100649.31;4397437;32;22300;-73
2021/12/07 09:47:12;;;;;;;2.92;2.83;;;;;;;3.32;100.00;100646.66;4395550;32;20096;-74
2021/12/07 09:49:37;;;;;;;4.43;4.22;;;;;;;3.02;100.00;100583.38;4394976;32;20119;-74
2021/12/07 09:52:02;;;;;;;3.10;3.00;;;;;;;3.44;100.00;100648.09;4392026;32;20065;-73
2021/12/07 09:54:28;;;;;;;4.53;4.32;;;;;;;2.78;99.49;100532.94;4400248;32;20148;-73
2021/12/07 09:56:53;;;;;;;3.20;3.10;;;;;;;3.68;97.58;100649.25;4388425;32;20146;-75
2021/12/07 09:59:18;;;;;;;3.15;3.05;;;;;;;3.81;97.48;100647.22;4406606;32;20587;-74
2021/12/07 10:01:44;;;;;;;3.00;2.90;;;;;;;3.88;96.29;100640.97;4390097;32;20459;-73
2021/12/07 10:04:09;;;;;;;2.95;2.85;;;;;;;3.93;95.56;100641.72;4390493;32;20169;-73
2021/12/07 10:06:35;;;;;;;4.47;4.28;;;;;;;3.18;95.30;100501.75;4402997;32;20531;-73
2021/12/07 10:09:00;;;;;;;3.10;3.00;;;;;;;4.12;93.89;100636.03;4416513;32;20638;-73
2021/12/07 10:11:26;;;;;;;3.30;3.20;;;;;;;4.11;93.85;100618.75;4393809;32;20238;-72
2021/12/07 10:13:52;;;;;;;3.20;3.10;;;;;;;4.18;92.90;100615.09;4399159;32;20434;-73
2021/12/07 10:16:19;;;;;;;3.20;3.10;;;;;;;4.39;92.63;100619.72;4395339;32;20084;-74
2021/12/07 10:18:45;;;;;;;2.90;2.80;;;;;;;3.14;91.75;100396.41;4401595;32;20079;-74
2021/12/07 10:21:19;;;;;;;3.10;3.00;;;;;;;3.93;91.24;100505.84;4391156;32;20416;-74
2021/12/07 10:23:54;;;;;;;3.00;2.90;;;;;;;4.60;91.06;100589.66;4405768;32;20084;-74
2021/12/07 10:26:27;;;;;;;3.10;3.00;;;;;;;4.74;90.86;100604.84;4396936;32;20085;-74
2021/12/07 10:29:12;;;;;;;3.28;3.17;;;;;;;4.87;89.65;100597.53;4401551;32;20083;-71
2021/12/07 10:31:51;;;;;;;3.75;3.65;;;;;;;4.93;88.50;100597.34;4390777;32;20076;-74
2021/12/07 10:34:18;;;;;;;3.10;3.00;;;;;;;4.34;88.49;100491.66;4419253;32;20068;-74
2021/12/07 10:36:48;;;;;;;3.10;3.00;;;;;;;5.09;88.14;100600.34;4398050;32;20099;-73
2021/12/07 10:39:26;;;;;;;3.00;2.90;;;;;;;5.16;87.62;100607.03;4393823;32;20143;-73
2021/12/07 10:41:55;;;;;;;3.25;3.15;;;;;;;5.22;87.26;100606.00;4411304;32;20090;-73
2021/12/07 10:44:25;;;;;;;3.25;3.15;;;;;;;5.23;87.69;100593.81;4421529;32;20215;-74
2021/12/07 10:46:59;;;;;;;3.40;3.30;;;;;;;5.45;86.92;100605.25;4402998;32;20587;-73
2021/12/07 10:49:42;;;;;;;4.65;4.45;;;;;;;5.57;86.62;100601.41;4417587;32;20079;-75
2021/12/07 10:52:30;;;;;;;3.20;3.10;;;;;;;5.66;85.55;100595.06;4423408;32;20072;-74
2021/12/07 10:54:55;;;;;;;3.30;3.20;;;;;;;5.44;84.80;100542.84;4411099;32;20347;-76
2021/12/07 10:57:22;;;;;;;3.50;3.37;;;;;;;5.70;84.36;100597.50;4420025;32;20203;-75
2021/12/07 11:00:09;;;;;;;3.10;3.00;;;;;;;5.71;84.30;100599.22;4412989;32;20065;-74
2021/12/07 11:02:36;;;;;;;4.53;4.32;;;;;;;5.80;83.22;100592.81;4381025;32;20092;-74
2021/12/07 11:05:04;;;;;;;3.30;3.20;;;;;;;5.15;82.66;100477.87;4410868;32;20087;-74
2021/12/07 11:07:29;;;;;;;4.50;4.30;;;;;;;5.56;83.34;100534.63;4400812;32;20108;-75
2021/12/07 11:10:06;;;;;;;3.20;3.10;;;;;;;5.90;82.78;100581.19;4394844;32;20644;-74
2021/12/07 11:12:47;;;;;;;4.43;4.22;;;;;;;5.89;81.89;100576.88;4420582;32;20076;-74
2021/12/07 11:15:22;;;;;;;3.40;3.30;;;;;;;5.92;82.75;100568.97;4418626;32;20083;-73
2021/12/07 11:17:47;;;;;;;3.30;3.20;;;;;;;6.06;81.66;100559.84;4389939;32;20069;-74
2021/12/07 11:20:13;;;;;;;3.22;3.12;;;;;;;5.53;80.91;100456.63;4396921;32;20065;-73
2021/12/07 11:22:42;;;;;;;3.95;3.75;;;;;;;6.12;80.70;100541.38;4418074;32;21118;-75
2021/12/07 11:25:07;;;;;;;3.60;3.50;;;;;;;5.68;80.15;100452.66;4398005;32;20724;-74
2021/12/07 11:30:25;;;;;;;3.40;3.30;;;;;;;5.78;78.84;100456.63;4411347;32;20309;-74
2021/12/07 11:32:55;;;;;;;3.30;3.20;;;;;;;6.15;78.17;100491.75;4390979;32;20088;-74
2021/12/07 11:35:35;;;;;;;3.37;3.28;;;;;;;6.42;77.79;100496.84;4361733;32;20089;-77
2021/12/07 11:38:03;;;;;;;3.45;3.35;;;;;;;6.51;78.02;100505.16;4397892;32;20271;-73
2021/12/07 11:40:33;;;;;;;4.47;4.28;;;;;;;6.55;76.64;100505.88;4391163;32;20099;-74
2021/12/07 11:42:59;;;;;;;3.30;3.20;;;;;;;6.63;75.01;100511.66;4395319;32;20659;-73
2021/12/07 11:45:29;;;;;;;4.50;4.30;;;;;;;6.71;74.88;100508.75;4384458;32;20199;-73
2021/12/07 11:47:59;;;;;;;3.90;3.72;;;;;;;6.69;74.61;100511.41;4392889;32;20100;-74
2021/12/07 11:50:35;;;;;;;4.40;4.20;;;;;;;6.75;74.56;100511.16;4382644;32;20617;-73
2021/12/07 11:53:07;;;;;;;3.60;3.50;;;;;;;6.62;74.07;100480.44;4409534;32;20096;-74
2021/12/07 11:55:33;;;;;;;5.17;4.97;;;;;;;6.79;73.17;100494.53;4375087;32;20076;-74
2021/12/07 11:57:59;;;;;;;3.33;3.22;;;;;;;6.95;73.73;100514.75;4414053;32;20548;-73
2021/12/07 12:00:29;;;;;;;4.55;4.35;;;;;;;6.63;70.99;100477.75;4371278;32;20999;-73
2021/12/07 12:02:54;;;;;;;3.40;3.30;;;;;;;6.75;71.95;100487.69;4403647;32;20934;-75
2021/12/07 12:05:20;;;;;;;3.55;3.45;;;;;;;6.84;70.91;100499.53;4372048;32;20077;-75
2021/12/07 12:07:47;;;;;;;3.85;3.75;;;;;;;6.95;69.98;100506.94;4408908;32;20081;-73
2021/12/07 12:10:13;;;;;;;3.53;3.42;;;;;;;6.94;70.07;100494.81;4379672;32;20074;-75
2021/12/07 12:13:07;;;;;;;4.50;4.30;;;;;;;6.31;70.08;100416.47;4374386;32;21007;-75
2021/12/07 12:15:47;;;;;;;3.60;3.50;;;;;;;6.62;70.28;100451.75;4397055;32;20558;-74
2021/12/07 12:18:43;;;;;;;3.55;3.45;;;;;;;7.01;70.15;100501.47;4394295;32;20084;-74
2021/12/07 12:21:27;;;;;;;3.60;3.50;;;;;;;7.16;69.71;100497.41;4324659;32;20567;-73
2021/12/07 12:24:11;;;;;;;3.60;3.50;;;;;;;6.97;69.77;100494.66;4405484;32;20196;-73
2021/12/07 12:26:37;;;;;;;4.80;4.60;;;;;;;6.58;70.13;100407.53;4394357;32;20077;-74
2021/12/07 12:29:17;;;;;;;3.60;3.50;;;;;;;7.04;70.18;100474.41;4415506;32;20076;-75
2021/12/07 12:31:53;;;;;;;3.55;3.45;;;;;;;7.08;70.01;100468.16;4389970;32;20077;-74
2021/12/07 12:34:21;;;;;;;3.60;3.50;;;;;;;7.02;67.52;100468.41;4411330;32;20090;-75
2021/12/07 12:37:06;;;;;;;3.67;3.58;;;;;;;6.55;66.58;100394.62;4408143;32;20186;-75
2021/12/07 12:39:43;;;;;;;5.00;4.80;;;;;;;6.70;67.08;100434.88;4401556;32;20081;-75
2021/12/07 12:42:09;;;;;;;3.70;3.60;;;;;;;6.76;67.67;100455.50;4413311;32;20087;-75
2021/12/07 12:44:35;;;;;;;6.10;5.80;;;;;;;6.54;67.27;100446.84;4407304;32;20073;-75
2021/12/07 12:47:00;;;;;;;3.42;3.33;;;;;;;6.66;67.62;100456.78;4408133;32;20213;-71
2021/12/07 12:49:38;;;;;;;4.95;4.75;;;;;;;6.45;69.18;100419.38;4402285;32;20064;-73
2021/12/07 12:52:04;;;;;;;3.47;3.37;;;;;;;5.11;67.90;100243.91;4408573;32;20132;-70
2021/12/07 12:54:46;;;;;;;5.28;5.07;;;;;;;6.38;68.44;100429.19;4403156;32;20671;-75
2021/12/07 12:57:14;;;;;;;3.30;3.20;;;;;;;6.56;68.81;100452.84;4397510;32;20272;-75
2021/12/07 12:59:40;;;;;;;4.05;3.85;;;;;;;5.24;70.11;100232.16;4388067;32;20107;-75